This is the latest recevied weather packets stored in our database for station/object K1ABC. If no packets are shown the sender has not sent any weather packets the latest 10 day(s).
| Time | Temp. | Humidity | Pressure | Rain* | Wind** | Luminosity | Snow |
|---|---|---|---|---|---|---|---|
| 1777310457 | 20.56° C | 34% | 1024.8 hPa | 0 mm | - | - | - |
| 1777309147 | 19.44° C | 38% | 1025.1 hPa | 0 mm | - | - | - |
| 1777308822 | 20° C | 35% | 1025.2 hPa | 0 mm | - | - | - |
| 1777307734 | 20° C | 35% | 1025.2 hPa | 0 mm | - | - | - |
| 1777307283 | 20° C | 34% | 1025.1 hPa | 0 mm | - | - | - |
| 1777307088 | 20° C | 35% | 1025.1 hPa | 0 mm | - | - | - |
| 1777305625 | 19.44° C | 37% | 1025.2 hPa | 0 mm | - | - | - |
| 1777303687 | 18.89° C | 39% | 1025.4 hPa | 0 mm | - | - | - |
| 1777303488 | 18.89° C | 37% | 1025.4 hPa | 0 mm | - | - | - |
| 1777302923 | 18.33° C | 38% | 1025.4 hPa | 0 mm | - | - | - |
| 1777301248 | 18.89° C | 38% | 1025.5 hPa | 0 mm | - | - | - |
| 1777300934 | 18.89° C | 37% | 1025.5 hPa | 0 mm | - | - | - |
| 1777300603 | 18.33° C | 37% | 1025.5 hPa | 0 mm | - | - | - |
| 1777300161 | 18.33° C | 38% | 1025.5 hPa | 0 mm | - | - | - |
| 1777299450 | 18.33° C | 38% | 1025.5 hPa | 0 mm | - | - | - |
| 1777298250 | 17.78° C | 43% | 1025.2 hPa | 0 mm | - | - | - |
| 1777298050 | 17.78° C | 43% | 1025.2 hPa | 0 mm | - | - | - |
| 1777296965 | 17.22° C | 46% | 1025.4 hPa | 0 mm | - | - | - |
| 1777295016 | 15° C | 49% | 1025.2 hPa | 0 mm | - | - | - |
| 1777294691 | 14.44° C | 51% | 1025.1 hPa | 0 mm | - | - | - |
| 1777293102 | 12.78° C | 57% | 1025.1 hPa | 0 mm | - | - | - |
| 1777292777 | 12.78° C | 58% | 1025.1 hPa | 0 mm | - | - | - |
| 1777292457 | 12.22° C | 59% | 1025.1 hPa | 0 mm | - | - | - |
| 1777291760 | 11.67° C | 61% | 1025 hPa | 0 mm | - | - | - |
| 1777290940 | 10.56° C | 65% | 1024.8 hPa | 0 mm | - | - | - |
* Rain latest hour (hover to see other rain measurements)
** Current wind speed in m/s (hover to see current wind gust speed)